M.volkan — TCQB7 — position and weather

sailwx.info

Track history (hours):
 
Tides and Currents Weather Stations Pressure Air Temp Water Temp Dewpoint Dewpoint Depression Visibility Wind Speed Wind Dir Waves Ship Positions

M.volkan

Last reported at 2017-Dec-02 08:41 UTC. Time now 2017-Dec-12 04:46 UTC.
Position N 36°46' E 030°54'.
Warning: this ship's position is 9 days out of date.

Length 19 m.

Type: Fishing. MMSI: 271072343.

Date/timePositionNaut miles runAvg speedWind from/ knotsBaromVisibWave heightAir tempDewpointWater temp
2017-Dec-02 08:41N 36°46' E 030°54'0 2.7
2017-Dec-02 08:30N 36°46' E 030°55'2 2.7
2017-Dec-02 07:56N 36°46' E 030°57'2 3.9
2017-Dec-02 07:30N 36°47' E 030°58'1 2.1
2017-Dec-02 06:58N 36°48' E 030°57'1 2.7
2017-Dec-02 06:29N 36°48' E 030°55'1 2.6
2017-Dec-02 06:01N 36°48' E 030°54'2 0.1
2017-Dec-01 13:53N 36°47' E 030°56'1 2.6
2017-Dec-01 13:28N 36°47' E 030°55'1 2.6
2017-Dec-01 12:57N 36°47' E 030°53'1 2.5
2017-Dec-01 12:30N 36°47' E 030°52'1 2.6
2017-Dec-01 12:00N 36°47' E 030°50'1 2.7
2017-Dec-01 11:30N 36°48' E 030°49'1 2.5
2017-Dec-01 11:00N 36°49' E 030°47'0 0.8
2017-Dec-01 10:30N 36°48' E 030°48'1 2.5
2017-Dec-01 10:00N 36°47' E 030°49'2 2.6
2017-Dec-01 09:19N 36°46' E 030°50'1 2.7
2017-Dec-01 09:00N 36°46' E 030°51'1 2.7
2017-Dec-01 08:30N 36°45' E 030°53'1 2.7
2017-Dec-01 07:58N 36°45' E 030°55'1 2.6
2017-Dec-01 07:29N 36°45' E 030°56'1 2.2
2017-Dec-01 06:58N 36°46' E 030°56'1 2.2
2017-Dec-01 06:28N 36°47' E 030°56'0 0.5
2017-Dec-01 06:00N 36°48' E 030°55'1 2.5
2017-Dec-01 05:30N 36°48' E 030°54'1 2.5
2017-Dec-01 05:00N 36°48' E 030°52'1 2.6
2017-Dec-01 04:30N 36°48' E 030°51'1 2.7
2017-Dec-01 04:01N 36°48' E 030°49'2 4.2
2017-Dec-01 03:30N 36°49' E 030°46'4 7.6
2017-Dec-01 03:00N 36°49' E 030°42'4 7.5
2017-Dec-01 02:30N 36°49' E 030°37'2 2.8
2017-Dec-01 01:52N 36°48' E 030°35'0 0.0
2017-Dec-01 01:28N 36°48' E 030°35'0 0.0
2017-Dec-01 00:55N 36°48' E 030°35'0 0.0
2017-Dec-01 00:28N 36°48' E 030°35'0 0.0
2017-Nov-30 23:58N 36°48' E 030°35'0 0.0
2017-Nov-30 23:25N 36°48' E 030°35'0 0.0
2017-Nov-30 22:13N 36°48' E 030°35'0 0.0
2017-Nov-30 21:58N 36°48' E 030°35'3 6.5
2017-Nov-30 21:30N 36°48' E 030°39'4 7.6
2017-Nov-30 21:00N 36°48' E 030°43'4 7.5
2017-Nov-30 20:30N 36°48' E 030°48'1 1.4
2017-Nov-30 20:01N 36°49' E 030°49'1 1.8
2017-Nov-30 19:30N 36°48' E 030°50'1 2.5
2017-Nov-30 19:00N 36°48' E 030°51'1 2.5
2017-Nov-30 18:30N 36°48' E 030°53'1 2.6
2017-Nov-30 18:00N 36°48' E 030°55'1 2.6
2017-Nov-30 17:28N 36°48' E 030°56'1 0.1
2017-Nov-30 07:04N 36°47' E 030°57'0 2.5
2017-Nov-30 06:52N 36°47' E 030°57'1 2.5
2017-Nov-30 06:30N 36°47' E 030°55'1 2.6
2017-Nov-30 05:59N 36°47' E 030°54'1 2.6
2017-Nov-30 05:30N 36°47' E 030°52'1 2.6
2017-Nov-30 05:00N 36°48' E 030°51'1 2.6
2017-Nov-30 04:30N 36°48' E 030°49'2 5.0
2017-Nov-30 04:00N 36°49' E 030°46'4 7.5
2017-Nov-30 03:30N 36°49' E 030°41'4 7.5
2017-Nov-30 03:00N 36°48' E 030°37'1 2.9
2017-Nov-30 02:30N 36°48' E 030°35'0 0.0
2017-Nov-30 02:00N 36°48' E 030°35'0 0.0
2017-Nov-30 01:30N 36°48' E 030°35'0 0.0
2017-Nov-30 00:54N 36°48' E 030°35'0 0.0
2017-Nov-30 00:30N 36°48' E 030°35'0 0.0
2017-Nov-30 00:00N 36°48' E 030°35'0 0.0
2017-Nov-29 23:30N 36°48' E 030°35'0 0.0
2017-Nov-29 23:00N 36°48' E 030°35'0 0.0
2017-Nov-29 22:30N 36°48' E 030°35'0 0.0
2017-Nov-29 21:54N 36°48' E 030°35'0 0.0
2017-Nov-29 21:30N 36°48' E 030°35'0 0.0
2017-Nov-28 16:28N 36°48' E 030°35'2 3.4
2017-Nov-28 16:00N 36°49' E 030°37'6 6.2
2017-Nov-28 15:00N 36°48' E 030°45'4 7.0
2017-Nov-28 14:30N 36°48' E 030°40'4 7.3
2017-Nov-28 14:00N 36°48' E 030°36'1 1.2
2017-Nov-28 13:29N 36°48' E 030°35'0 0.0
2017-Nov-28 12:29N 36°48' E 030°35'0 0.0
2017-Nov-28 11:59N 36°48' E 030°35'0 0.0
2017-Nov-28 11:29N 36°48' E 030°35'0 0.0
2017-Nov-28 10:59N 36°48' E 030°35'0 0.0
2017-Nov-28 10:29N 36°48' E 030°35'0 0.0
2017-Nov-28 09:59N 36°48' E 030°35'0 0.0
2017-Nov-28 09:29N 36°48' E 030°35'0 0.0
2017-Nov-28 08:59N 36°48' E 030°35'0 0.0
2017-Nov-28 08:29N 36°48' E 030°35'0 0.0
2017-Nov-28 07:56N 36°48' E 030°35'0 0.0
2017-Nov-28 07:29N 36°48' E 030°35'0 0.0
2017-Nov-28 06:59N 36°48' E 030°35'0 0.0
2017-Nov-28 06:29N 36°48' E 030°35'0 0.0
2017-Nov-28 05:50N 36°48' E 030°35'0 0.0
2017-Nov-28 05:29N 36°48' E 030°35'0 0.0
2017-Nov-28 04:29N 36°48' E 030°35'0 0.0
2017-Nov-28 03:59N 36°48' E 030°35'0 0.0
2017-Nov-28 03:29N 36°48' E 030°35'0 0.0
2017-Nov-28 02:53N 36°48' E 030°35'0 0.0
2017-Nov-28 02:29N 36°48' E 030°35'0 0.0
2017-Nov-28 01:53N 36°48' E 030°35'0 0.0
2017-Nov-28 01:29N 36°48' E 030°35'0 0.0
2017-Nov-28 00:53N 36°48' E 030°35'0 0.0
2017-Nov-28 00:29N 36°48' E 030°35'0 0.0
2017-Nov-27 23:56N 36°48' E 030°35'0 0.0
2017-Nov-27 23:29N 36°48' E 030°35'0 0.0
2017-Nov-27 22:56N 36°48' E 030°35'0 0.0
2017-Nov-27 22:02N 36°48' E 030°35'0 0.0
2017-Nov-27 21:53N 36°48' E 030°35'0 0.0
2017-Nov-27 21:29N 36°48' E 030°35'0 0.0
2017-Nov-27 20:59N 36°48' E 030°35'0 0.0
2017-Nov-27 20:26N 36°48' E 030°35'0 0.0
2017-Nov-27 19:59N 36°48' E 030°35'0 0.0
2017-Nov-27 19:29N 36°48' E 030°35'0 0.0
2017-Nov-27 18:53N 36°48' E 030°35'0 0.0
2017-Nov-27 18:29N 36°48' E 030°35'15 0.3
2017-Nov-25 15:06N 36°48' E 030°54'0 2.6
2017-Nov-25 14:57N 36°48' E 030°53'1 2.7
2017-Nov-25 14:30N 36°48' E 030°52'1 2.6
2017-Nov-25 14:00N 36°48' E 030°50'1 1.9
2017-Nov-25 13:30N 36°47' E 030°50'1 1.7
2017-Nov-25 13:00N 36°47' E 030°51'1 2.7
2017-Nov-25 12:30N 36°47' E 030°52'1 2.6
2017-Nov-25 12:00N 36°46' E 030°54'6 2.4
2017-Nov-25 09:25N 36°45' E 031°02'2 2.6
2017-Nov-25 08:49N 36°45' E 031°04'  
Track history (hours):
 
Tides and Currents Weather Stations Pressure Air Temp Water Temp Dewpoint Dewpoint Depression Visibility Wind Speed Wind Dir Waves Ship Positions

M.volkan

Last reported at 2017-Dec-02 08:41 UTC. Time now 2017-Dec-12 04:46 UTC.
Position N 36°46' E 030°54'.
Warning: this ship's position is 9 days out of date.

Length 19 m.

Type: Fishing. MMSI: 271072343.

Date/timePositionNaut miles runAvg speedWind from/ knotsBaromVisibWave heightAir tempDewpointWater temp
2017-Dec-02 08:41N 36°46' E 030°54'0 2.7
2017-Dec-02 08:30N 36°46' E 030°55'2 2.7
2017-Dec-02 07:56N 36°46' E 030°57'2 3.9
2017-Dec-02 07:30N 36°47' E 030°58'1 2.1
2017-Dec-02 06:58N 36°48' E 030°57'1 2.7
2017-Dec-02 06:29N 36°48' E 030°55'1 2.6
2017-Dec-02 06:01N 36°48' E 030°54'2 0.1
2017-Dec-01 13:53N 36°47' E 030°56'1 2.6
2017-Dec-01 13:28N 36°47' E 030°55'1 2.6
2017-Dec-01 12:57N 36°47' E 030°53'1 2.5
2017-Dec-01 12:30N 36°47' E 030°52'1 2.6
2017-Dec-01 12:00N 36°47' E 030°50'1 2.7
2017-Dec-01 11:30N 36°48' E 030°49'1 2.5
2017-Dec-01 11:00N 36°49' E 030°47'0 0.8
2017-Dec-01 10:30N 36°48' E 030°48'1 2.5
2017-Dec-01 10:00N 36°47' E 030°49'2 2.6
2017-Dec-01 09:19N 36°46' E 030°50'1 2.7
2017-Dec-01 09:00N 36°46' E 030°51'1 2.7
2017-Dec-01 08:30N 36°45' E 030°53'1 2.7
2017-Dec-01 07:58N 36°45' E 030°55'1 2.6
2017-Dec-01 07:29N 36°45' E 030°56'1 2.2
2017-Dec-01 06:58N 36°46' E 030°56'1 2.2
2017-Dec-01 06:28N 36°47' E 030°56'0 0.5
2017-Dec-01 06:00N 36°48' E 030°55'1 2.5
2017-Dec-01 05:30N 36°48' E 030°54'1 2.5
2017-Dec-01 05:00N 36°48' E 030°52'1 2.6
2017-Dec-01 04:30N 36°48' E 030°51'1 2.7
2017-Dec-01 04:01N 36°48' E 030°49'2 4.2
2017-Dec-01 03:30N 36°49' E 030°46'4 7.6
2017-Dec-01 03:00N 36°49' E 030°42'4 7.5
2017-Dec-01 02:30N 36°49' E 030°37'2 2.8
2017-Dec-01 01:52N 36°48' E 030°35'0 0.0
2017-Dec-01 01:28N 36°48' E 030°35'0 0.0
2017-Dec-01 00:55N 36°48' E 030°35'0 0.0
2017-Dec-01 00:28N 36°48' E 030°35'0 0.0
2017-Nov-30 23:58N 36°48' E 030°35'0 0.0
2017-Nov-30 23:25N 36°48' E 030°35'0 0.0
2017-Nov-30 22:13N 36°48' E 030°35'0 0.0
2017-Nov-30 21:58N 36°48' E 030°35'3 6.5
2017-Nov-30 21:30N 36°48' E 030°39'4 7.6
2017-Nov-30 21:00N 36°48' E 030°43'4 7.5
2017-Nov-30 20:30N 36°48' E 030°48'1 1.4
2017-Nov-30 20:01N 36°49' E 030°49'1 1.8
2017-Nov-30 19:30N 36°48' E 030°50'1 2.5
2017-Nov-30 19:00N 36°48' E 030°51'1 2.5
2017-Nov-30 18:30N 36°48' E 030°53'1 2.6
2017-Nov-30 18:00N 36°48' E 030°55'1 2.6
2017-Nov-30 17:28N 36°48' E 030°56'1 0.1
2017-Nov-30 07:04N 36°47' E 030°57'0 2.5
2017-Nov-30 06:52N 36°47' E 030°57'1 2.5
2017-Nov-30 06:30N 36°47' E 030°55'1 2.6
2017-Nov-30 05:59N 36°47' E 030°54'1 2.6
2017-Nov-30 05:30N 36°47' E 030°52'1 2.6
2017-Nov-30 05:00N 36°48' E 030°51'1 2.6
2017-Nov-30 04:30N 36°48' E 030°49'2 5.0
2017-Nov-30 04:00N 36°49' E 030°46'4 7.5
2017-Nov-30 03:30N 36°49' E 030°41'4 7.5
2017-Nov-30 03:00N 36°48' E 030°37'1 2.9
2017-Nov-30 02:30N 36°48' E 030°35'0 0.0
2017-Nov-30 02:00N 36°48' E 030°35'0 0.0
2017-Nov-30 01:30N 36°48' E 030°35'0 0.0
2017-Nov-30 00:54N 36°48' E 030°35'0 0.0
2017-Nov-30 00:30N 36°48' E 030°35'0 0.0
2017-Nov-30 00:00N 36°48' E 030°35'0 0.0
2017-Nov-29 23:30N 36°48' E 030°35'0 0.0
2017-Nov-29 23:00N 36°48' E 030°35'0 0.0
2017-Nov-29 22:30N 36°48' E 030°35'0 0.0
2017-Nov-29 21:54N 36°48' E 030°35'0 0.0
2017-Nov-29 21:30N 36°48' E 030°35'0 0.0
2017-Nov-28 16:28N 36°48' E 030°35'2 3.4
2017-Nov-28 16:00N 36°49' E 030°37'6 6.2
2017-Nov-28 15:00N 36°48' E 030°45'4 7.0
2017-Nov-28 14:30N 36°48' E 030°40'4 7.3
2017-Nov-28 14:00N 36°48' E 030°36'1 1.2
2017-Nov-28 13:29N 36°48' E 030°35'0 0.0
2017-Nov-28 12:29N 36°48' E 030°35'0 0.0
2017-Nov-28 11:59N 36°48' E 030°35'0 0.0
2017-Nov-28 11:29N 36°48' E 030°35'0 0.0
2017-Nov-28 10:59N 36°48' E 030°35'0 0.0
2017-Nov-28 10:29N 36°48' E 030°35'0 0.0
2017-Nov-28 09:59N 36°48' E 030°35'0 0.0
2017-Nov-28 09:29N 36°48' E 030°35'0 0.0
2017-Nov-28 08:59N 36°48' E 030°35'0 0.0
2017-Nov-28 08:29N 36°48' E 030°35'0 0.0
2017-Nov-28 07:56N 36°48' E 030°35'0 0.0
2017-Nov-28 07:29N 36°48' E 030°35'0 0.0
2017-Nov-28 06:59N 36°48' E 030°35'0 0.0
2017-Nov-28 06:29N 36°48' E 030°35'0 0.0
2017-Nov-28 05:50N 36°48' E 030°35'0 0.0
2017-Nov-28 05:29N 36°48' E 030°35'0 0.0
2017-Nov-28 04:29N 36°48' E 030°35'0 0.0
2017-Nov-28 03:59N 36°48' E 030°35'0 0.0
2017-Nov-28 03:29N 36°48' E 030°35'0 0.0
2017-Nov-28 02:53N 36°48' E 030°35'0 0.0
2017-Nov-28 02:29N 36°48' E 030°35'0 0.0
2017-Nov-28 01:53N 36°48' E 030°35'0 0.0
2017-Nov-28 01:29N 36°48' E 030°35'0 0.0
2017-Nov-28 00:53N 36°48' E 030°35'0 0.0
2017-Nov-28 00:29N 36°48' E 030°35'0 0.0
2017-Nov-27 23:56N 36°48' E 030°35'0 0.0
2017-Nov-27 23:29N 36°48' E 030°35'0 0.0
2017-Nov-27 22:56N 36°48' E 030°35'0 0.0
2017-Nov-27 22:02N 36°48' E 030°35'0 0.0
2017-Nov-27 21:53N 36°48' E 030°35'0 0.0
2017-Nov-27 21:29N 36°48' E 030°35'0 0.0
2017-Nov-27 20:59N 36°48' E 030°35'0 0.0
2017-Nov-27 20:26N 36°48' E 030°35'0 0.0
2017-Nov-27 19:59N 36°48' E 030°35'0 0.0
2017-Nov-27 19:29N 36°48' E 030°35'0 0.0
2017-Nov-27 18:53N 36°48' E 030°35'0 0.0
2017-Nov-27 18:29N 36°48' E 030°35'15 0.3
2017-Nov-25 15:06N 36°48' E 030°54'0 2.6
2017-Nov-25 14:57N 36°48' E 030°53'1 2.7
2017-Nov-25 14:30N 36°48' E 030°52'1 2.6
2017-Nov-25 14:00N 36°48' E 030°50'1 1.9
2017-Nov-25 13:30N 36°47' E 030°50'1 1.7
2017-Nov-25 13:00N 36°47' E 030°51'1 2.7
2017-Nov-25 12:30N 36°47' E 030°52'1 2.6
2017-Nov-25 12:00N 36°46' E 030°54'6 2.4
2017-Nov-25 09:25N 36°45' E 031°02'2 2.6
2017-Nov-25 08:49N 36°45' E 031°04'  

Dump ship's entire track history